Kaneohe, HI

04:18 PM HST am 04. August 2015 (GMT -1000)
Haiku Plantations | | Change Station
CLOSE
Current Station
Persönliche Wetterstationen
Location: Kaneohe, HI
Höhe: 249 ft
Wetterstationen in der Umgebung
aktive Warnung: High Surf Advisory aktiver Hinweis: Record Report

Höhe 249 ft 21.42 °N, 157.82 °W | Updated 19 seconds ago

Scattered Clouds
Teils Wolkig
82.0 °F
gefühlte 89 °F
N
0.2
Wind Wechselnd Wind aus Süd
Gusts 2.5 mph

Heute
Max. -- | schwach -- °F
--% Regenrisiko
Gestern
Max. -- | schwach -- °F
Precip. -- inch
6:05 AM 7:08 PM
Drittes Viertel, 72% visible
Druck 29.81 inch
Sichtweite -9999.0 Meilen
Wolken Teils Wolkig 6000 ft
Hitzeindex 89 °F
Taupunkt 75 °F
Feuchtigkeit 80%
Regen 0.00 inch
Schneehöhe Nicht verfügbar..
UV 1.0 von 12
Pollen Nicht verfügbar..
Luftqualität Nicht verfügbar..
Flu Activity Nicht verfügbar..
METAR PHNG 050157Z AUTO 03008KT SCT060 29/23 A2983 RMK AO2 SLP095 T02940233 PWINO $

More Conditions Fewer Conditions

Druck 29.81 inch
Sichtweite -9999.0 Meilen
Wolken Teils Wolkig 6000 ft
Hitzeindex 89 °F
Taupunkt 75 °F
Feuchtigkeit 80%
Regen 0.00 inch
Schneehöhe Nicht verfügbar..
UV 1.0 von 12
Pollen Nicht verfügbar..
Luftqualität Nicht verfügbar..
Flu Activity Nicht verfügbar..
METAR PHNG 050157Z AUTO 03008KT SCT060 29/23 A2983 RMK AO2 SLP095 T02940233 PWINO $

More Conditions Fewer Conditions

10-Day Weather Forecast

×

Almanac

Astronomie

Aug. 04, 2015 Aufgang Untergang
Genaue Zeit
Bürgerliche Dämmerung
Nautische Dämmerung
Astronomische Dämmerung
Mond
Länge des sichtbaren Lichts
Tageslänge
Tomorrow will be .
, % of the Moon is Illuminated

Heutige Rekorde

State Highs State Lows

Community

WunderPhotos

Upload Photos

1,844,077 Fotos hochgeladen!

WunderBlogs® & News

Nearby

Luftqualität

  Luftqualität LQ Index Schadstoff
Not available.

Schneehöhe

Station Depth Höhe

Erdbebenaktivität

Stadt Distance Mag. Time & Date
Minimum magnitude displayed is 2.5.

küstennahe Wassertemperaturen

Ort Temperatur

Stations

Wetterstationen in der Umgebung

Stationsstandort Temp. Windchill Taupunkt Feuchtigkeit Wind Precip. Höhe Aktualisiert Art
                   
High Surf Advisory
Statement as of 03:30 PM HST am 04. August 2015

... High surf advisory remains in effect from midnight tonight to
noon HST Thursday...

A high surf advisory remains in effect from midnight tonight to
noon HST Thursday.

* Surf... up to 5 feet through the evening... increasing to 6 to
10 feet late tonight and Wednesday... .then declining Thursday.

* Timing... building late tonight... peaking late Wednesday... then
declining Thursday.

* Impacts... moderate... expect strong breaking waves... shore
break... and strong currents making swimming dangerous.

Precautionary/preparedness actions... heed all advice from ocean
safety officials and exercise caution. Boaters should expect
surfers using Harbor channels to reach surf breaks.


Donaldson